createdAt,value
2022-12-25T00:00:47.940Z,3.04
2022-12-25T00:03:46.702Z,2.94
2022-12-25T00:06:32.910Z,3.40
2022-12-25T00:09:18.791Z,3.42
2022-12-25T00:12:05.483Z,3.37
2022-12-25T00:14:51.370Z,3.39
2022-12-25T00:17:37.461Z,3.63
2022-12-25T00:20:24.029Z,3.27
2022-12-25T00:23:10.080Z,3.40
2022-12-25T00:25:56.217Z,3.04
2022-12-25T00:28:45.804Z,3.47
2022-12-25T00:31:31.967Z,3.69
2022-12-25T00:34:18.348Z,3.28
2022-12-25T00:37:04.288Z,3.60
2022-12-25T00:39:54.807Z,3.54
2022-12-25T00:42:40.645Z,3.33
2022-12-25T00:45:29.564Z,3.53
2022-12-25T00:48:15.873Z,3.30
2022-12-25T00:51:07.416Z,3.34
2022-12-25T00:53:54.416Z,3.06
2022-12-25T00:56:40.873Z,3.57
2022-12-25T00:59:26.761Z,3.70
2022-12-25T01:02:25.904Z,3.68
2022-12-25T01:05:12.421Z,3.28
2022-12-25T01:07:59.211Z,3.71
2022-12-25T01:10:54.000Z,3.75
2022-12-25T01:13:41.502Z,3.82
2022-12-25T01:16:28.222Z,3.80
2022-12-25T01:19:14.827Z,3.37
2022-12-25T01:22:01.048Z,4.04
2022-12-25T01:24:47.529Z,3.78
2022-12-25T01:27:33.988Z,3.46
2022-12-25T01:30:20.197Z,3.67
2022-12-25T01:33:06.598Z,3.92
2022-12-25T01:35:52.771Z,3.65
2022-12-25T01:38:39.049Z,4.14
2022-12-25T01:41:26.095Z,3.53
2022-12-25T01:44:14.807Z,4.14
2022-12-25T01:47:06.517Z,3.75
2022-12-25T01:49:52.213Z,3.50
2022-12-25T01:52:39.351Z,4.13
2022-12-25T01:55:26.762Z,4.20
2022-12-25T01:58:17.376Z,3.46
2022-12-25T02:01:03.250Z,3.65
2022-12-25T02:03:49.843Z,3.65
2022-12-25T02:06:35.872Z,4.02
2022-12-25T02:09:22.530Z,3.99
2022-12-25T02:12:10.456Z,4.02
2022-12-25T02:15:05.033Z,3.56
2022-12-25T02:18:03.289Z,3.96
2022-12-25T02:20:58.450Z,4.22
2022-12-25T02:24:24.911Z,3.77
2022-12-25T02:27:42.683Z,4.47
2022-12-25T02:30:35.018Z,4.27
2022-12-25T02:33:49.784Z,4.01
2022-12-25T02:36:54.430Z,4.07
2022-12-25T02:39:58.210Z,4.50
2022-12-25T02:43:09.088Z,3.88
2022-12-25T02:46:25.318Z,4.33
2022-12-25T02:49:36.753Z,4.26
2022-12-25T02:52:42.960Z,4.24
2022-12-25T02:55:52.966Z,4.15
2022-12-25T02:59:09.001Z,3.90
2022-12-25T03:02:14.635Z,4.38
2022-12-25T03:05:26.283Z,3.88
2022-12-25T03:08:16.691Z,4.12
2022-12-25T03:11:24.899Z,4.11
2022-12-25T03:14:29.440Z,4.29
2022-12-25T03:17:15.968Z,4.59
2022-12-25T03:20:21.104Z,4.60
2022-12-25T03:23:27.855Z,3.79
2022-12-25T03:26:32.729Z,4.38
2022-12-25T03:29:37.477Z,4.21
2022-12-25T03:32:32.829Z,4.60
2022-12-25T03:35:31.267Z,4.37
2022-12-25T03:38:52.166Z,4.57
2022-12-25T03:42:05.390Z,4.59
2022-12-25T03:45:26.913Z,4.14
2022-12-25T03:48:33.234Z,3.82
2022-12-25T03:51:41.779Z,4.22
2022-12-25T03:54:50.332Z,4.39
2022-12-25T03:57:58.001Z,4.37
2022-12-25T04:01:04.077Z,4.38
2022-12-25T04:04:08.830Z,4.47
2022-12-25T04:07:16.466Z,4.42
2022-12-25T04:10:21.122Z,4.56
2022-12-25T04:13:27.085Z,3.88
2022-12-25T04:16:31.765Z,4.27
2022-12-25T04:19:36.895Z,4.66
2022-12-25T04:22:41.715Z,4.21
2022-12-25T04:25:47.023Z,4.50
2022-12-25T04:28:51.840Z,3.95
2022-12-25T04:31:56.534Z,4.12
2022-12-25T04:35:01.786Z,4.41
2022-12-25T04:37:48.295Z,4.20
2022-12-25T04:40:34.276Z,4.64
2022-12-25T04:43:20.253Z,4.33
2022-12-25T04:46:06.490Z,4.06
2022-12-25T04:48:53.406Z,4.50
2022-12-25T04:51:39.641Z,4.33
2022-12-25T04:54:26.100Z,4.52
2022-12-25T04:57:12.613Z,4.32
2022-12-25T04:59:59.065Z,4.27
2022-12-25T05:02:45.479Z,4.37
2022-12-25T05:05:32.588Z,4.11
2022-12-25T05:08:18.656Z,4.14
2022-12-25T05:11:10.443Z,4.23
2022-12-25T05:13:57.100Z,4.81
2022-12-25T05:16:44.047Z,4.08
2022-12-25T05:19:30.363Z,4.76
2022-12-25T05:22:16.784Z,4.16
2022-12-25T05:25:02.427Z,4.64
2022-12-25T05:27:53.879Z,4.58
2022-12-25T05:30:40.279Z,4.84
2022-12-25T05:33:27.064Z,4.43
2022-12-25T05:36:13.203Z,4.33
2022-12-25T05:39:00.352Z,4.47
2022-12-25T05:41:46.360Z,4.86
2022-12-25T05:44:33.177Z,4.58
2022-12-25T05:47:19.330Z,4.91
2022-12-25T05:50:07.452Z,4.69
2022-12-25T05:52:53.420Z,4.61
2022-12-25T05:55:43.820Z,4.34
2022-12-25T05:58:30.843Z,4.89
2022-12-25T06:01:20.687Z,4.62
2022-12-25T06:04:12.082Z,4.56
2022-12-25T06:06:59.038Z,4.90
2022-12-25T06:09:44.737Z,4.60
2022-12-25T06:12:31.269Z,4.60
2022-12-25T06:15:17.614Z,4.55
2022-12-25T06:18:04.731Z,4.50
2022-12-25T06:20:50.934Z,4.51
2022-12-25T06:23:38.063Z,4.61
2022-12-25T06:26:23.700Z,4.45
2022-12-25T06:29:10.589Z,4.45
2022-12-25T06:31:57.637Z,4.36
2022-12-25T06:34:44.013Z,4.49
2022-12-25T06:37:30.188Z,4.50
2022-12-25T06:40:17.492Z,4.15
2022-12-25T06:43:03.281Z,4.64
2022-12-25T06:45:53.248Z,4.22
2022-12-25T06:48:40.818Z,4.58
2022-12-25T06:51:29.295Z,4.26
2022-12-25T06:54:14.942Z,4.91
2022-12-25T06:57:01.582Z,4.92
2022-12-25T06:59:54.583Z,4.39
2022-12-25T07:02:47.652Z,4.50
2022-12-25T07:05:33.561Z,4.65
2022-12-25T07:08:19.549Z,4.71
2022-12-25T07:11:05.887Z,4.56
2022-12-25T07:13:52.932Z,4.49
2022-12-25T07:16:39.236Z,4.60
2022-12-25T07:19:26.826Z,4.96
2022-12-25T07:22:14.719Z,4.34
2022-12-25T07:25:01.600Z,4.88
2022-12-25T07:27:50.039Z,5.11
2022-12-25T07:30:38.806Z,4.95
2022-12-25T07:33:25.215Z,4.76
2022-12-25T07:36:12.966Z,4.79
2022-12-25T07:38:59.755Z,5.27
2022-12-25T07:41:47.611Z,5.17
2022-12-25T07:44:34.627Z,4.97
2022-12-25T07:47:20.872Z,5.33
2022-12-25T07:50:08.519Z,4.82
2022-12-25T07:52:55.906Z,4.99
2022-12-25T07:55:41.860Z,5.04
2022-12-25T07:58:35.336Z,5.46
2022-12-25T08:01:25.472Z,4.89
2022-12-25T08:04:14.929Z,5.08
2022-12-25T08:07:01.468Z,5.09
2022-12-25T08:09:48.307Z,5.27
2022-12-25T08:12:35.458Z,5.27
2022-12-25T08:15:23.045Z,5.55
2022-12-25T08:18:09.316Z,5.59
2022-12-25T08:20:56.009Z,5.24
2022-12-25T08:23:44.078Z,4.90
2022-12-25T08:26:31.463Z,5.17
2022-12-25T08:29:18.245Z,5.24
2022-12-25T08:32:04.862Z,5.49
2022-12-25T08:34:51.743Z,5.57
2022-12-25T08:37:39.418Z,5.25
2022-12-25T08:40:25.646Z,5.79
2022-12-25T08:43:11.825Z,5.57
2022-12-25T08:45:57.648Z,5.71
2022-12-25T08:48:46.052Z,5.46
2022-12-25T08:51:32.610Z,5.37
2022-12-25T08:54:18.540Z,5.77
2022-12-25T08:57:06.204Z,5.55
2022-12-25T08:59:53.089Z,5.86
2022-12-25T09:02:39.413Z,5.17
2022-12-25T09:05:26.855Z,5.22
2022-12-25T09:08:12.590Z,5.84
2022-12-25T09:11:08.862Z,5.58
2022-12-25T09:13:55.608Z,5.39
2022-12-25T09:16:43.321Z,5.47
2022-12-25T09:19:30.320Z,5.54
2022-12-25T09:22:16.959Z,5.83
2022-12-25T09:25:18.262Z,5.16
2022-12-25T09:28:10.591Z,5.21
2022-12-25T09:31:00.962Z,5.42
2022-12-25T09:33:47.583Z,5.24
2022-12-25T09:36:33.678Z,5.25
2022-12-25T09:39:20.393Z,5.92
2022-12-25T09:42:13.656Z,5.18
2022-12-25T09:45:03.592Z,5.94
2022-12-25T09:47:49.823Z,5.24
2022-12-25T09:50:46.536Z,5.80
2022-12-25T09:53:38.076Z,5.28
2022-12-25T09:56:26.231Z,5.96
2022-12-25T09:59:25.814Z,5.77
2022-12-25T10:02:31.082Z,6.00
2022-12-25T10:05:53.192Z,5.57
2022-12-25T10:09:01.402Z,5.96
2022-12-25T10:12:12.669Z,5.96
2022-12-25T10:15:17.155Z,5.81
2022-12-25T10:18:28.872Z,5.93
2022-12-25T10:21:18.656Z,5.91
2022-12-25T10:24:30.491Z,5.52
2022-12-25T10:27:30.357Z,5.81
2022-12-25T10:30:19.993Z,5.34
2022-12-25T10:33:10.936Z,5.78
2022-12-25T10:36:01.325Z,5.49
2022-12-25T10:38:48.502Z,5.70
2022-12-25T10:42:11.074Z,5.83
2022-12-25T10:45:03.181Z,5.81
2022-12-25T10:47:54.398Z,5.28
2022-12-25T10:50:46.295Z,5.48
2022-12-25T10:54:00.219Z,5.22
2022-12-25T10:57:10.409Z,5.34
2022-12-25T11:00:01.519Z,5.47
2022-12-25T11:02:50.280Z,5.87
2022-12-25T11:05:39.012Z,5.91
2022-12-25T11:08:28.150Z,5.35
2022-12-25T11:11:21.092Z,5.65
2022-12-25T11:14:20.077Z,5.94
2022-12-25T11:17:25.974Z,5.65
2022-12-25T11:20:18.568Z,5.61
2022-12-25T11:23:10.478Z,5.67
2022-12-25T11:26:03.747Z,5.87
2022-12-25T11:28:54.376Z,5.56
2022-12-25T11:31:41.589Z,5.91
2022-12-25T11:34:34.107Z,5.60
2022-12-25T11:37:31.600Z,5.55
2022-12-25T11:40:36.294Z,5.51
2022-12-25T11:43:46.572Z,5.76
2022-12-25T11:46:41.899Z,5.23
2022-12-25T11:49:29.627Z,5.40
2022-12-25T11:52:17.520Z,5.22
2022-12-25T11:55:38.704Z,5.11
2022-12-25T11:58:35.471Z,5.70
2022-12-25T12:01:43.296Z,5.67
2022-12-25T12:04:48.355Z,5.64
2022-12-25T12:07:35.852Z,5.00
2022-12-25T12:10:28.659Z,5.21
2022-12-25T12:13:41.025Z,5.59
2022-12-25T12:16:26.987Z,5.34
2022-12-25T12:19:27.370Z,5.39
2022-12-25T12:22:25.497Z,4.89
2022-12-25T12:25:17.418Z,5.20
2022-12-25T12:28:05.853Z,5.02
2022-12-25T12:31:07.570Z,5.31
2022-12-25T12:33:54.536Z,5.59
2022-12-25T12:36:41.889Z,5.59
2022-12-25T12:39:34.532Z,5.03
2022-12-25T12:42:31.717Z,5.32
2022-12-25T12:45:23.787Z,5.30
2022-12-25T12:48:21.912Z,5.52
2022-12-25T12:51:12.288Z,5.03
2022-12-25T12:54:25.731Z,4.87
2022-12-25T12:57:27.199Z,5.13
2022-12-25T13:00:20.162Z,5.54
2022-12-25T13:03:29.268Z,5.03
2022-12-25T13:06:30.524Z,5.47
2022-12-25T13:09:57.079Z,5.57
2022-12-25T13:13:16.464Z,5.20
2022-12-25T13:16:07.535Z,5.15
2022-12-25T13:18:57.972Z,4.95
2022-12-25T13:22:02.965Z,5.62
2022-12-25T13:24:57.181Z,5.21
2022-12-25T13:28:16.185Z,5.23
2022-12-25T13:31:16.553Z,4.91
2022-12-25T13:34:13.302Z,5.21
2022-12-25T13:37:07.988Z,4.91
2022-12-25T13:40:00.927Z,5.39
2022-12-25T13:42:48.213Z,5.10
2022-12-25T13:45:40.976Z,5.45
2022-12-25T13:48:31.868Z,5.14
2022-12-25T13:51:24.776Z,4.81
2022-12-25T13:54:13.841Z,4.82
2022-12-25T13:57:00.139Z,5.20
2022-12-25T13:59:48.165Z,5.02
2022-12-25T14:02:38.644Z,4.81
2022-12-25T14:05:42.250Z,4.84
2022-12-25T14:08:37.953Z,4.74
2022-12-25T14:11:27.699Z,4.72
2022-12-25T14:14:20.938Z,4.72
2022-12-25T14:17:11.923Z,5.01
2022-12-25T14:20:07.614Z,4.70
2022-12-25T14:23:00.732Z,4.79
2022-12-25T14:25:55.532Z,4.81
2022-12-25T14:28:43.868Z,4.79
2022-12-25T14:31:30.635Z,4.70
2022-12-25T14:34:21.847Z,4.92
2022-12-25T14:37:32.502Z,4.51
2022-12-25T14:40:26.889Z,5.27
2022-12-25T14:43:25.475Z,4.78
2022-12-25T14:46:26.094Z,5.28
2022-12-25T14:49:25.473Z,4.77
2022-12-25T14:52:34.455Z,5.29
2022-12-25T14:55:26.989Z,5.07
2022-12-25T14:58:31.239Z,4.64
2022-12-25T15:01:32.648Z,4.87
2022-12-25T15:04:20.770Z,5.02
2022-12-25T15:07:30.415Z,4.77
2022-12-25T15:10:59.016Z,4.62
2022-12-25T15:13:30.274Z,4.64
2022-12-25T15:16:24.736Z,4.80
2022-12-25T15:19:26.607Z,5.09
2022-12-25T15:22:15.287Z,5.01
2022-12-25T15:25:04.381Z,4.51
2022-12-25T15:27:53.480Z,4.46
2022-12-25T15:30:42.252Z,4.48
2022-12-25T15:33:29.523Z,4.34
2022-12-25T15:36:15.782Z,4.42
2022-12-25T15:39:04.900Z,4.37
2022-12-25T15:42:09.832Z,4.63
2022-12-25T15:44:57.507Z,4.80
2022-12-25T15:47:47.135Z,5.03
2022-12-25T15:50:39.971Z,4.60
2022-12-25T15:53:35.172Z,4.58
2022-12-25T15:56:22.755Z,4.29
2022-12-25T15:59:15.210Z,4.73
2022-12-25T16:02:03.621Z,4.96
2022-12-25T16:04:52.725Z,4.57
2022-12-25T16:07:39.720Z,4.67
2022-12-25T16:10:34.909Z,4.71
2022-12-25T16:13:27.077Z,4.11
2022-12-25T16:16:15.497Z,4.68
2022-12-25T16:19:02.621Z,4.54
2022-12-25T16:21:51.027Z,4.27
2022-12-25T16:24:38.597Z,4.83
2022-12-25T16:27:27.353Z,4.81
2022-12-25T16:30:17.624Z,4.53
2022-12-25T16:33:04.133Z,4.27
2022-12-25T16:35:52.828Z,4.67
2022-12-25T16:38:38.935Z,4.42
2022-12-25T16:41:26.152Z,4.43
2022-12-25T16:44:12.363Z,4.96
2022-12-25T16:46:59.502Z,4.51
2022-12-25T16:49:45.775Z,4.67
2022-12-25T16:52:50.402Z,4.61
2022-12-25T16:56:08.111Z,4.38
2022-12-25T16:59:16.812Z,4.64
2022-12-25T17:02:06.200Z,4.58
2022-12-25T17:05:05.627Z,4.18
2022-12-25T17:07:53.975Z,4.61
2022-12-25T17:12:13.709Z,4.64
2022-12-25T17:15:09.996Z,4.60
2022-12-25T17:19:00.036Z,4.17
2022-12-25T17:23:20.558Z,4.84
2022-12-25T17:26:56.452Z,4.89
2022-12-25T17:29:54.222Z,4.34
2022-12-25T17:32:47.907Z,4.53
2022-12-25T17:35:43.658Z,4.88
2022-12-25T17:38:51.435Z,4.22
2022-12-25T17:41:46.638Z,4.37
2022-12-25T17:47:49.708Z,4.17
2022-12-25T17:50:41.587Z,4.59
2022-12-25T17:53:43.030Z,4.39
2022-12-25T17:56:31.887Z,4.66
2022-12-25T17:59:33.163Z,4.55
2022-12-25T18:02:24.134Z,4.20
2022-12-25T18:05:11.675Z,4.16
2022-12-25T18:08:00.774Z,4.59
2022-12-25T18:10:47.516Z,4.91
2022-12-25T18:13:43.741Z,4.47
2022-12-25T18:16:40.012Z,4.91
2022-12-25T18:19:31.428Z,4.78
2022-12-25T18:22:26.890Z,4.96
2022-12-25T18:25:15.023Z,4.71
2022-12-25T18:36:03.170Z,4.96
2022-12-25T18:40:10.060Z,4.25
2022-12-25T18:43:53.960Z,4.27
2022-12-25T18:46:30.357Z,4.76
2022-12-25T18:49:17.785Z,4.52
2022-12-25T18:52:48.462Z,4.89
2022-12-25T18:55:11.803Z,4.52
2022-12-25T18:57:59.202Z,4.53
2022-12-25T19:00:45.302Z,4.63
2022-12-25T19:03:32.090Z,4.95
2022-12-25T19:06:20.376Z,4.52
2022-12-25T19:09:12.396Z,4.29
2022-12-25T19:11:58.092Z,4.51
2022-12-25T19:14:48.595Z,4.76
2022-12-25T19:17:37.912Z,4.98
2022-12-25T19:20:27.251Z,4.76
2022-12-25T19:23:16.295Z,4.32
2022-12-25T19:26:05.812Z,4.67
2022-12-25T19:28:52.678Z,4.60
2022-12-25T19:42:23.238Z,4.95
2022-12-25T19:45:10.971Z,5.06
2022-12-25T19:48:03.785Z,5.04
2022-12-25T19:50:54.800Z,5.09
2022-12-25T19:54:09.263Z,5.09
2022-12-25T19:57:26.123Z,5.08
2022-12-25T20:00:38.481Z,5.09
2022-12-25T20:04:02.084Z,5.09
2022-12-25T20:07:10.443Z,5.07
2022-12-25T20:10:09.602Z,5.07
2022-12-25T20:13:09.401Z,5.08
2022-12-25T20:16:15.052Z,5.07
2022-12-25T20:19:18.917Z,5.02
2022-12-25T20:22:08.941Z,5.00
2022-12-25T20:25:09.083Z,5.00
2022-12-25T20:28:26.838Z,4.82
2022-12-25T20:31:32.813Z,5.03
2022-12-25T20:34:25.673Z,5.01
2022-12-25T20:37:27.095Z,5.06
2022-12-25T20:40:22.683Z,5.04
2022-12-25T20:43:45.473Z,5.07
2022-12-25T20:46:54.497Z,5.03
2022-12-25T20:50:15.217Z,5.07
2022-12-25T20:53:12.514Z,5.07
2022-12-25T20:56:04.973Z,5.04
2022-12-25T20:59:09.809Z,5.08
2022-12-25T21:08:38.249Z,5.07
2022-12-25T21:11:48.092Z,4.92
2022-12-25T21:15:15.728Z,5.06
2022-12-25T21:18:13.520Z,5.07
2022-12-25T21:21:44.407Z,4.83
2022-12-25T21:25:07.975Z,5.05
2022-12-25T21:28:03.973Z,5.09
2022-12-25T21:30:55.662Z,5.04
2022-12-25T21:34:04.409Z,5.04
2022-12-25T21:37:01.300Z,5.07
2022-12-25T21:40:16.172Z,4.76
2022-12-25T21:46:29.164Z,5.07
2022-12-25T21:49:48.312Z,5.07
2022-12-25T21:52:48.602Z,4.96
2022-12-25T21:56:43.912Z,5.08
2022-12-25T21:59:42.004Z,5.06
2022-12-25T22:02:36.330Z,5.01
2022-12-25T22:05:44.179Z,5.06
2022-12-25T22:08:41.948Z,5.03
2022-12-25T22:12:13.526Z,4.99
2022-12-25T22:15:09.880Z,4.88
2022-12-25T22:18:21.981Z,5.04
2022-12-25T22:21:24.888Z,4.77
2022-12-25T22:24:28.892Z,4.98
2022-12-25T22:27:23.307Z,4.93
2022-12-25T22:30:36.536Z,4.93
2022-12-25T22:33:31.821Z,4.91
2022-12-25T22:36:37.065Z,4.86
2022-12-25T22:39:29.203Z,4.87
2022-12-25T22:42:28.810Z,4.84
2022-12-25T22:45:26.950Z,4.87
2022-12-25T22:48:26.653Z,4.78
2022-12-25T22:51:24.616Z,4.43
2022-12-25T22:54:20.207Z,4.84
2022-12-25T22:57:10.210Z,4.87
2022-12-25T23:00:07.206Z,4.74
2022-12-25T23:03:13.959Z,4.84
2022-12-25T23:06:07.148Z,4.85
2022-12-25T23:09:40.903Z,4.87
2022-12-25T23:12:58.729Z,4.86
2022-12-25T23:16:01.967Z,4.82
2022-12-25T23:19:24.208Z,4.86
2022-12-25T23:22:34.556Z,4.76
2022-12-25T23:25:52.121Z,4.82
2022-12-25T23:29:20.797Z,4.75
2022-12-25T23:32:29.964Z,4.84
2022-12-25T23:35:27.536Z,4.84
2022-12-25T23:38:25.630Z,4.87
2022-12-25T23:41:23.794Z,4.85
2022-12-25T23:44:28.413Z,4.84
2022-12-25T23:47:21.558Z,4.87
2022-12-25T23:50:08.372Z,4.88
2022-12-25T23:56:53.010Z,4.84
2022-12-25T23:59:51.343Z,4.89
